Time;durP1;ratioP1;P1;durP2;ratioP2;P2;SDS_P1;SDS_P2;PMS_P1;PMS_P2;Temp;Humidity;BMP_temperature;BMP_pressure;BME280_temperature;BME280_humidity;BME280_pressure;Samples;Min_cycle;Max_cycle;Signal;HPM_P1;HPM_P2
2022/01/10 00:46:07;;;;;;;9.40;6.40;;;;;;;1.46;100.00;101313.03;5695745;24;20031;-80
2022/01/10 01:59:14;;;;;;;7.50;5.00;;;;;;;0.65;100.00;101359.34;4801177;24;20443;-83
2022/01/10 02:01:40;;;;;;;6.90;5.20;;;;;;;0.37;100.00;101303.28;4751060;30;20040;-84
2022/01/10 02:04:05;;;;;;;6.28;5.05;;;;;;;0.53;100.00;101323.25;4761760;30;20036;-84
2022/01/10 02:06:31;;;;;;;8.77;5.40;;;;;;;0.26;100.00;101295.31;4766943;30;20024;-84
2022/01/10 02:08:58;;;;;;;6.53;4.97;;;;;;;0.72;100.00;101375.59;4762375;30;20044;-84
2022/01/10 02:11:23;;;;;;;8.07;5.32;;;;;;;0.51;100.00;101351.66;4744723;30;20071;-84
2022/01/10 02:13:49;;;;;;;7.13;5.30;;;;;;;0.43;100.00;101345.16;4746000;30;20103;-83
2022/01/10 02:16:20;;;;;;;6.80;5.22;;;;;;;0.67;100.00;101395.34;4763030;30;20055;-83
2022/01/10 02:18:46;;;;;;;8.82;5.15;;;;;;;0.32;100.00;101331.06;4763819;30;20055;-83
2022/01/10 02:21:13;;;;;;;9.15;5.25;;;;;;;0.52;100.00;101375.34;4766527;30;20031;-83
2022/01/10 02:23:39;;;;;;;7.93;5.65;;;;;;;0.20;100.00;101323.13;4766269;30;20028;-84
2022/01/10 02:26:04;;;;;;;7.70;5.20;;;;;;;0.39;100.00;101375.47;4765775;30;20038;-84
2022/01/10 02:28:32;;;;;;;8.68;5.53;;;;;;;0.66;100.00;101416.66;4767745;30;20030;-84
2022/01/10 02:30:58;;;;;;;7.30;4.82;;;;;;;0.99;100.00;101483.84;4769466;30;20050;-85
2022/01/10 02:33:25;;;;;;;7.10;5.35;;;;;;;0.29;100.00;101385.09;4772232;30;20078;-85
2022/01/10 02:38:35;;;;;;;7.53;5.28;;;;;;;-0.15;100.00;101338.22;4768254;30;20053;-83
2022/01/10 02:41:01;;;;;;;8.10;5.35;;;;;;;-0.04;100.00;101367.34;4766104;30;20039;-84
2022/01/10 02:43:27;;;;;;;8.23;5.70;;;;;;;0.66;100.00;101483.72;4769596;30;20032;-85
2022/01/10 02:45:55;;;;;;;8.30;5.55;;;;;;;0.79;100.00;101512.75;4770152;30;20024;-83
2022/01/10 02:48:20;;;;;;;10.30;5.63;;;;;;;-0.16;100.00;101350.63;4759824;30;20040;-83
2022/01/10 02:50:46;;;;;;;7.38;5.40;;;;;;;-0.02;100.00;101392.72;4759179;30;20092;-83
2022/01/10 02:53:11;;;;;;;8.05;5.22;;;;;;;0.28;100.00;101439.00;4759028;30;20447;-83
2022/01/10 02:55:37;;;;;;;6.65;4.95;;;;;;;0.22;100.00;101461.47;4775253;30;20024;-82
2022/01/10 02:58:02;;;;;;;8.32;5.07;;;;;;;0.10;100.00;101449.19;4776799;30;20067;-83
2022/01/10 03:00:28;;;;;;;7.50;5.20;;;;;;;0.03;100.00;101432.06;4758255;30;20036;-83
2022/01/10 03:02:55;;;;;;;6.25;4.93;;;;;;;0.05;100.00;101445.19;4740689;30;20452;-83
2022/01/10 03:05:23;;;;;;;8.30;5.20;;;;;;;-0.18;100.00;101426.56;4741785;30;20033;-83
2022/01/10 03:07:51;;;;;;;8.45;5.05;;;;;;;0.28;100.00;101493.75;4741969;30;20044;-82
2022/01/10 03:10:17;;;;;;;6.10;4.95;;;;;;;-0.19;100.00;101443.41;4746962;30;20032;-83
2022/01/10 03:12:43;;;;;;;8.77;5.88;;;;;;;-0.27;100.00;101435.19;4759380;30;20066;-82
2022/01/10 03:15:10;;;;;;;7.38;5.80;;;;;;;0.60;100.00;101568.94;4766149;30;20063;-83
2022/01/10 03:17:36;;;;;;;8.40;5.40;;;;;;;0.26;100.00;101524.75;4777316;30;20040;-83
2022/01/10 03:20:04;;;;;;;6.60;5.40;;;;;;;-0.17;100.00;101456.50;4772321;30;20032;-82
2022/01/10 03:22:31;;;;;;;8.07;5.38;;;;;;;-0.05;100.00;101476.78;4760099;30;20064;-83
2022/01/10 03:24:57;;;;;;;8.20;4.78;;;;;;;0.10;100.00;101501.22;4759989;30;20034;-83
2022/01/10 03:27:24;;;;;;;7.20;4.78;;;;;;;0.29;100.00;101538.59;4761924;30;20064;-83
2022/01/10 03:29:50;;;;;;;6.43;4.70;;;;;;;-0.30;100.00;101446.00;4762779;30;20359;-84
2022/01/10 03:32:15;;;;;;;6.07;4.15;;;;;;;-0.31;100.00;101458.38;4766576;30;20070;-84
2022/01/10 03:34:41;;;;;;;5.53;3.85;;;;;;;0.52;100.00;101592.50;4774239;30;20095;-84
2022/01/10 03:37:06;;;;;;;7.70;4.40;;;;;;;0.66;100.00;101612.63;4771392;30;20044;-83
2022/01/10 03:39:32;;;;;;;5.60;4.20;;;;;;;0.72;100.00;101619.28;4779960;30;20050;-84
2022/01/10 03:41:58;;;;;;;8.68;4.30;;;;;;;0.67;100.00;101619.66;4780935;30;20108;-83
2022/01/10 03:44:23;;;;;;;9.48;3.92;;;;;;;0.66;100.00;101626.75;4772549;30;20048;-83
2022/01/10 03:46:49;;;;;;;6.55;4.30;;;;;;;0.63;100.00;101631.41;4767024;30;20032;-83
2022/01/10 03:49:15;;;;;;;5.78;4.03;;;;;;;0.56;100.00;101633.66;4769685;30;20074;-84
2022/01/10 03:51:41;;;;;;;4.80;3.95;;;;;;;0.58;100.00;101638.88;4774170;30;20028;-84
2022/01/10 03:54:08;;;;;;;7.82;4.70;;;;;;;0.59;100.00;101662.56;4790022;30;20100;-82
2022/01/10 03:56:34;;;;;;;9.75;5.05;;;;;;;0.60;100.00;101666.94;4775746;30;20143;-83
2022/01/10 03:58:59;;;;;;;7.57;4.50;;;;;;;0.57;100.00;101664.50;4744508;30;20081;-82
2022/01/10 04:01:25;;;;;;;7.65;4.20;;;;;;;0.52;100.00;101673.75;4756956;30;20074;-83
2022/01/10 04:03:52;;;;;;;6.40;4.40;;;;;;;0.46;100.00;101673.25;4759980;30;20108;-83
2022/01/10 04:06:17;;;;;;;6.80;4.00;;;;;;;0.40;100.00;101673.69;4776593;30;20100;-83
2022/01/10 04:08:42;;;;;;;6.45;4.40;;;;;;;0.39;100.00;101677.28;4778476;30;20119;-83
2022/01/10 04:11:08;;;;;;;6.28;4.05;;;;;;;0.40;100.00;101697.53;4761849;30;20039;-83
2022/01/10 04:13:33;;;;;;;5.65;3.95;;;;;;;0.37;100.00;101705.69;4732558;30;20050;-83
2022/01/10 04:15:59;;;;;;;6.88;3.40;;;;;;;0.28;100.00;101703.69;4761025;30;20509;-82
2022/01/10 04:18:25;;;;;;;5.55;3.70;;;;;;;0.35;100.00;101706.75;4760268;30;20044;-83
2022/01/10 04:20:51;;;;;;;6.20;3.60;;;;;;;0.27;100.00;101709.94;4762044;30;20036;-83
2022/01/10 04:23:17;;;;;;;5.05;3.20;;;;;;;0.28;100.00;101716.94;4761478;30;20032;-83
2022/01/10 04:25:43;;;;;;;7.00;3.95;;;;;;;0.23;100.00;101719.03;4760301;30;20032;-83
2022/01/10 04:28:09;;;;;;;5.15;3.65;;;;;;;0.33;100.00;101736.00;4761029;30;20447;-83
2022/01/10 04:30:35;;;;;;;5.57;3.70;;;;;;;0.33;100.00;101732.47;4761286;30;20043;-82
2022/01/10 04:33:01;;;;;;;6.03;3.70;;;;;;;0.25;100.00;101733.03;4769613;30;20031;-83
2022/01/10 04:35:29;;;;;;;5.63;3.88;;;;;;;0.23;100.00;101734.91;4778803;30;20048;-83
2022/01/10 04:37:55;;;;;;;6.40;3.70;;;;;;;0.28;100.00;101742.56;4761608;30;20074;-83
2022/01/10 04:40:23;;;;;;;6.40;3.85;;;;;;;0.27;100.00;101747.00;4779257;30;20035;-83
2022/01/10 04:42:50;;;;;;;5.95;3.88;;;;;;;0.23;100.00;101750.81;4777816;30;20506;-83
2022/01/10 04:45:15;;;;;;;7.50;4.30;;;;;;;0.25;100.00;101762.16;4762524;30;20463;-83
2022/01/10 04:47:41;;;;;;;8.35;4.50;;;;;;;0.23;100.00;101772.84;4761800;30;20037;-84
2022/01/10 04:50:53;;;;;;;9.15;4.82;;;;;;;0.20;100.00;101770.41;4760708;30;20065;-83
2022/01/10 04:52:53;;;;;;;6.93;3.97;;;;;;;0.27;100.00;101777.94;4775745;30;20051;-83
2022/01/10 04:55:19;;;;;;;7.95;4.65;;;;;;;0.27;100.00;101786.72;4764612;30;20043;-82
2022/01/10 04:57:45;;;;;;;7.28;4.50;;;;;;;0.24;100.00;101784.28;4763841;30;20064;-81
2022/01/10 05:00:14;;;;;;;6.22;4.25;;;;;;;0.23;100.00;101785.22;4778424;30;20046;-83
2022/01/10 05:02:44;;;;;;;7.45;4.43;;;;;;;0.21;100.00;101784.50;4780012;30;20147;-83
2022/01/10 05:05:10;;;;;;;6.40;4.90;;;;;;;0.23;100.00;101798.44;4766950;30;20070;-83
2022/01/10 05:07:35;;;;;;;7.05;4.72;;;;;;;0.19;100.00;101796.97;4747866;30;20044;-83
2022/01/10 05:10:01;;;;;;;6.38;4.82;;;;;;;0.15;100.00;101801.66;4753943;30;20040;-83
2022/01/10 05:12:28;;;;;;;6.00;4.65;;;;;;;0.18;100.00;101804.06;4757538;30;20095;-83
2022/01/10 05:14:54;;;;;;;5.68;4.80;;;;;;;0.21;100.00;101816.25;4764848;30;20084;-83
2022/01/10 05:17:21;;;;;;;6.50;5.00;;;;;;;0.16;100.00;101808.63;4762604;30;20036;-83
2022/01/10 05:19:47;;;;;;;7.70;4.97;;;;;;;0.13;100.00;101815.94;4736016;30;20039;-84
2022/01/10 05:22:12;;;;;;;7.57;5.05;;;;;;;0.05;100.00;101821.75;4767713;30;20228;-83
2022/01/10 05:24:38;;;;;;;7.68;5.43;;;;;;;0.12;100.00;101833.59;4750177;30;20051;-84
2022/01/10 05:27:05;;;;;;;8.02;4.95;;;;;;;0.10;100.00;101832.00;4748805;30;20048;-81
2022/01/10 05:29:31;;;;;;;5.63;4.78;;;;;;;0.10;100.00;101847.91;4744413;30;20067;-79
2022/01/10 05:31:56;;;;;;;6.38;4.85;;;;;;;0.06;100.00;101851.72;4765199;30;20067;-84
2022/01/10 05:34:22;;;;;;;7.28;4.82;;;;;;;0.06;100.00;101860.50;4759609;30;20060;-84
2022/01/10 05:36:48;;;;;;;8.40;5.40;;;;;;;0.04;100.00;101864.22;4776403;30;20033;-84
2022/01/10 05:39:13;;;;;;;7.97;4.85;;;;;;;-0.01;100.00;101873.28;4769905;30;20498;-84
2022/01/10 05:41:39;;;;;;;7.97;5.13;;;;;;;0.03;100.00;101886.31;4782142;30;20062;-83
2022/01/10 05:44:04;;;;;;;7.15;5.05;;;;;;;-0.05;100.00;101882.41;4772764;30;20036;-82
2022/01/10 05:46:31;;;;;;;7.82;5.18;;;;;;;-0.05;100.00;101882.41;4761853;30;20040;-81
2022/01/10 05:49:01;;;;;;;7.78;4.95;;;;;;;-0.18;100.00;101881.53;4763863;30;20036;-83
2022/01/10 05:51:32;;;;;;;8.15;5.22;;;;;;;-0.07;100.00;101896.66;4763889;30;20129;-83
2022/01/10 05:53:58;;;;;;;9.07;5.00;;;;;;;-0.06;100.00;101914.25;4778691;30;20046;-83
2022/01/10 05:56:24;;;;;;;7.50;4.68;;;;;;;-0.12;100.00;101910.22;4756586;30;20055;-83
2022/01/10 05:58:50;;;;;;;7.32;4.40;;;;;;;-0.19;100.00;101911.59;4769626;30;20052;-84
2022/01/10 06:01:16;;;;;;;6.07;4.28;;;;;;;-0.16;100.00;101918.47;4775407;30;20036;-84
2022/01/10 06:03:41;;;;;;;10.38;4.90;;;;;;;-0.23;100.00;101904.81;4774164;30;20047;-83
2022/01/10 06:06:07;;;;;;;6.97;4.82;;;;;;;-0.21;100.00;101924.06;4767630;30;20056;-83
2022/01/10 06:08:32;;;;;;;7.68;5.22;;;;;;;-0.20;100.00;101932.84;4776114;30;20027;-83
2022/01/10 06:10:57;;;;;;;6.05;4.32;;;;;;;-0.19;100.00;101942.50;4770796;30;20063;-82
2022/01/10 06:13:24;;;;;;;7.07;4.68;;;;;;;-0.25;100.00;101936.63;4768304;30;20043;-82
2022/01/10 06:15:51;;;;;;;7.80;5.03;;;;;;;-0.20;100.00;101949.53;4762668;30;20029;-83
2022/01/10 06:18:17;;;;;;;8.40;5.32;;;;;;;-0.28;100.00;101942.13;4771553;30;20035;-83
2022/01/10 06:20:42;;;;;;;8.32;5.32;;;;;;;-0.21;100.00;101961.09;4764258;30;20032;-83
2022/01/10 06:23:09;;;;;;;6.50;5.20;;;;;;;-0.17;100.00;101962.56;4760777;30;20074;-82
2022/01/10 06:25:35;;;;;;;8.90;5.45;;;;;;;-0.17;100.00;101977.59;4764943;30;20047;-83
2022/01/10 06:28:00;;;;;;;7.68;5.07;;;;;;;-0.18;100.00;101986.50;4764256;30;20036;-83
2022/01/10 06:30:27;;;;;;;8.77;5.15;;;;;;;-0.26;100.00;101977.28;4752148;30;20055;-83
2022/01/10 06:32:52;;;;;;;8.85;5.70;;;;;;;-0.21;100.00;101986.69;4784780;30;20059;-83
2022/01/10 06:35:17;;;;;;;8.40;5.35;;;;;;;-0.14;100.00;101994.13;4773647;30;20043;-83
2022/01/10 06:37:43;;;;;;;8.10;5.72;;;;;;;-0.17;100.00;102002.25;4761636;30;20040;-80
2022/01/10 06:40:09;;;;;;;8.73;5.63;;;;;;;-0.35;100.00;101975.22;4776039;30;20036;-82
2022/01/10 06:42:34;;;;;;;11.25;4.93;;;;;;;-0.27;100.00;102001.16;4748212;30;20036;-83
2022/01/10 06:45:00;;;;;;;7.85;5.32;;;;;;;-0.24;100.00;102008.91;4752719;30;20033;-84
2022/01/10 06:47:25;;;;;;;10.02;5.20;;;;;;;-0.25;100.00;102010.69;4767115;30;20041;-84
2022/01/10 06:49:51;;;;;;;8.45;5.68;;;;;;;-0.17;100.00;102019.94;4771037;30;20024;-84
2022/01/10 06:52:17;;;;;;;7.70;5.70;;;;;;;-0.19;100.00;102037.72;4772984;30;20039;-85
2022/01/10 06:54:42;;;;;;;10.00;6.00;;;;;;;-0.28;100.00;102034.69;4774504;30;20013;-85
2022/01/10 06:57:08;;;;;;;8.18;5.60;;;;;;;-0.31;100.00;102028.75;4773940;30;20104;-84
2022/01/10 06:59:33;;;;;;;8.13;5.80;;;;;;;-0.26;100.00;102045.19;4767001;30;20127;-84
2022/01/10 07:01:59;;;;;;;9.25;5.57;;;;;;;-0.31;100.00;102048.13;4766695;30;20047;-81
2022/01/10 07:04:26;;;;;;;11.02;6.70;;;;;;;-0.24;100.00;102059.16;4765391;30;20056;-83
2022/01/10 07:06:52;;;;;;;14.65;6.22;;;;;;;-0.18;100.00;102069.34;4755849;30;20049;-83
2022/01/10 07:09:18;;;;;;;10.90;6.30;;;;;;;-0.17;100.00;102068.38;4757737;30;20115;-82
2022/01/10 07:11:44;;;;;;;8.75;6.35;;;;;;;-0.17;100.00;102081.63;4757141;30;20136;-81
2022/01/10 07:14:11;;;;;;;8.68;6.07;;;;;;;-0.10;100.00;102085.59;4744052;30;20032;-81
2022/01/10 07:16:36;;;;;;;10.63;6.25;;;;;;;-0.06;100.00;102094.19;4777598;30;20051;-81
2022/01/10 07:19:02;;;;;;;9.60;6.00;;;;;;;-0.16;100.00;102093.91;4779153;30;20043;-82
2022/01/10 07:21:27;;;;;;;8.82;5.65;;;;;;;-0.08;100.00;102106.66;4779977;30;20039;-84
2022/01/10 07:23:53;;;;;;;8.63;6.18;;;;;;;-0.05;100.00;102109.94;4767980;30;20046;-85
2022/01/10 07:26:19;;;;;;;11.73;6.85;;;;;;;-0.02;100.00;102107.09;4767828;30;20028;-86
2022/01/10 07:28:45;;;;;;;9.35;6.43;;;;;;;-0.08;100.00;102112.78;4752652;30;20127;-83
2022/01/10 07:31:12;;;;;;;9.63;6.35;;;;;;;-0.14;100.00;102101.75;4777880;30;20032;-83
2022/01/10 07:33:37;;;;;;;11.23;6.03;;;;;;;-0.08;100.00;102120.72;4763986;30;20095;-85
2022/01/10 07:36:04;;;;;;;10.93;6.90;;;;;;;-0.10;100.00;102119.97;4747788;30;20072;-84
2022/01/10 07:38:35;;;;;;;9.10;6.40;;;;;;;-0.08;100.00;102126.00;4787266;30;20048;-84
2022/01/10 07:41:02;;;;;;;10.52;6.50;;;;;;;-0.18;100.00;102132.00;4782048;30;20048;-85
2022/01/10 07:43:28;;;;;;;10.57;6.63;;;;;;;-0.13;100.00;102140.47;4773907;30;20032;-83
2022/01/10 07:45:53;;;;;;;11.63;6.60;;;;;;;-0.06;100.00;102152.38;4756285;30;20037;-83
2022/01/10 07:48:19;;;;;;;11.10;6.60;;;;;;;-0.04;100.00;102159.25;4765054;30;20063;-82
2022/01/10 07:50:44;;;;;;;9.00;6.25;;;;;;;-0.09;100.00;102160.53;4765301;30;20135;-83
2022/01/10 07:53:09;;;;;;;11.38;7.90;;;;;;;-0.06;100.00;102168.25;4763596;30;20340;-83
2022/01/10 07:55:35;;;;;;;11.13;6.88;;;;;;;-0.07;100.00;102177.13;4762917;30;20065;-84
2022/01/10 07:58:00;;;;;;;8.88;6.85;;;;;;;-0.18;100.00;102175.16;4773243;30;20361;-85
2022/01/10 08:00:26;;;;;;;9.15;5.93;;;;;;;-0.14;100.00;102183.75;4763531;30;20146;-82
2022/01/10 08:02:51;;;;;;;9.95;6.18;;;;;;;-0.14;100.00;102194.34;4761396;30;20461;-83
2022/01/10 08:05:16;;;;;;;12.02;7.30;;;;;;;-0.23;100.00;102187.84;4732872;30;20106;-82
2022/01/10 08:07:42;;;;;;;9.80;6.43;;;;;;;-0.19;100.00;102199.06;4764058;30;20471;-81
2022/01/10 08:10:08;;;;;;;9.38;6.32;;;;;;;-0.21;100.00;102200.97;4759422;30;20047;-85
2022/01/10 08:12:33;;;;;;;8.23;5.60;;;;;;;-0.24;100.00;102207.28;4763364;30;20039;-80
2022/01/10 08:14:59;;;;;;;10.05;5.82;;;;;;;-0.20;100.00;102216.72;4750826;30;20040;-84
2022/01/10 08:17:24;;;;;;;10.05;6.07;;;;;;;-0.28;100.00;102211.06;4735646;30;20040;-83
2022/01/10 08:19:50;;;;;;;13.35;8.48;;;;;;;-0.22;100.00;102213.34;4761680;30;20115;-82
2022/01/10 08:22:16;;;;;;;10.45;8.55;;;;;;;-0.08;100.00;102225.72;4729561;30;20036;-83
2022/01/10 08:24:41;;;;;;;11.25;7.10;;;;;;;-0.11;100.00;102220.59;4770350;30;20062;-84
2022/01/10 08:27:07;;;;;;;9.05;6.88;;;;;;;-0.10;100.00;102228.47;4751610;30;20408;-83
2022/01/10 08:29:32;;;;;;;10.43;6.45;;;;;;;-0.10;100.00;102225.81;4764829;30;20062;-83
2022/01/10 08:31:58;;;;;;;7.47;5.40;;;;;;;-0.15;100.00;102243.75;4761077;30;20035;-82
2022/01/10 08:34:24;;;;;;;8.40;5.85;;;;;;;-0.11;100.00;102241.78;4760231;30;20036;-83
2022/01/10 08:36:50;;;;;;;9.38;5.72;;;;;;;-0.14;100.00;102242.81;4762492;30;20032;-83
2022/01/10 08:39:16;;;;;;;9.57;5.53;;;;;;;-0.08;100.00;102254.81;4760684;30;20367;-82
2022/01/10 08:41:42;;;;;;;8.45;5.45;;;;;;;-0.05;100.00;102257.28;4769988;30;20050;-82
2022/01/10 08:44:07;;;;;;;10.52;5.60;;;;;;;-0.14;100.00;102240.16;4768376;30;20115;-82
2022/01/10 08:46:33;;;;;;;8.60;5.68;;;;;;;-0.02;100.00;102268.50;4759830;30;20067;-82
2022/01/10 08:48:59;;;;;;;9.85;5.65;;;;;;;-0.10;100.00;102254.91;4763805;30;20037;-84
2022/01/10 08:51:25;;;;;;;8.18;5.68;;;;;;;-0.04;100.00;102269.53;4761687;30;20036;-83
2022/01/10 08:53:51;;;;;;;9.95;6.03;;;;;;;-0.14;100.00;102271.91;4765502;30;20406;-83
2022/01/10 08:56:17;;;;;;;8.32;5.82;;;;;;;-0.13;100.00;102288.63;4760433;30;20058;-84
2022/01/10 08:58:43;;;;;;;8.98;6.00;;;;;;;-0.11;100.00;102292.03;4759881;30;20067;-83
2022/01/10 09:01:08;;;;;;;8.38;5.57;;;;;;;-0.09;100.00;102298.09;4761679;30;20036;-83
2022/01/10 09:03:35;;;;;;;9.88;5.80;;;;;;;-0.10;100.00;102302.53;4761666;30;20047;-84
2022/01/10 09:06:01;;;;;;;10.75;5.70;;;;;;;-0.09;100.00;102301.59;4761285;30;20032;-83
2022/01/10 09:08:36;;;;;;;9.07;5.88;;;;;;;-0.11;100.00;102300.81;4763156;30;20127;-83
2022/01/10 09:11:02;;;;;;;8.02;5.80;;;;;;;-0.06;100.00;102300.56;4763251;30;20047;-83
2022/01/10 09:13:29;;;;;;;10.15;6.00;;;;;;;-0.07;100.00;102304.97;4742437;30;20075;-83
2022/01/10 09:15:54;;;;;;;9.50;6.32;;;;;;;-0.06;100.00;102306.69;4763371;30;20028;-83
2022/01/10 09:18:20;;;;;;;8.18;5.68;;;;;;;-0.06;100.00;102309.34;4762490;30;20054;-83
2022/01/10 09:20:46;;;;;;;9.60;6.15;;;;;;;-0.09;100.00;102311.31;4773130;30;20039;-82
2022/01/10 09:23:12;;;;;;;10.27;5.90;;;;;;;-0.12;100.00;102300.94;4780876;30;20043;-83
2022/01/10 09:25:38;;;;;;;11.63;6.40;;;;;;;-0.04;100.00;102314.53;4765395;30;20035;-83
2022/01/10 09:28:04;;;;;;;7.93;5.57;;;;;;;0.03;100.00;102318.50;4772370;30;20369;-83
2022/01/10 09:30:30;;;;;;;8.15;5.47;;;;;;;0.01;100.00;102319.56;4749008;30;20040;-83
2022/01/10 09:32:56;;;;;;;8.45;5.93;;;;;;;-0.01;100.00;102323.13;4749763;30;20052;-83
2022/01/10 09:35:22;;;;;;;7.38;5.38;;;;;;;0.11;100.00;102333.94;4771217;30;20674;-83
2022/01/10 09:37:48;;;;;;;9.45;5.82;;;;;;;-0.05;100.00;102324.28;4773663;30;20028;-83
2022/01/10 09:40:14;;;;;;;8.38;5.63;;;;;;;0.18;100.00;102348.50;4760759;30;20040;-83
2022/01/10 09:42:41;;;;;;;9.15;5.43;;;;;;;0.12;100.00;102348.84;4761084;30;20036;-83
2022/01/10 09:45:07;;;;;;;12.95;6.03;;;;;;;0.19;100.00;102358.97;4767216;30;20031;-83
2022/01/10 09:47:34;;;;;;;9.68;5.40;;;;;;;0.27;100.00;102377.06;4748414;30;20040;-84
2022/01/10 09:50:00;;;;;;;7.47;5.60;;;;;;;0.19;100.00;102358.13;4755896;30;20050;-84
2022/01/10 09:52:27;;;;;;;8.85;5.47;;;;;;;0.31;100.00;102367.97;4762134;30;20060;-84
2022/01/10 09:54:53;;;;;;;9.45;5.90;;;;;;;0.30;100.00;102373.34;4745039;30;20049;-84
2022/01/10 09:57:22;;;;;;;9.43;5.85;;;;;;;0.33;100.00;102381.97;4764212;30;20475;-83
2022/01/10 09:59:48;;;;;;;10.45;5.43;;;;;;;0.34;100.00;102382.84;4764431;30;20040;-83
2022/01/10 10:02:15;;;;;;;8.73;5.38;;;;;;;0.29;100.00;102380.44;4759685;30;20047;-85
2022/01/10 10:04:41;;;;;;;9.50;5.40;;;;;;;0.36;100.00;102387.06;4763424;30;20495;-83
2022/01/10 10:07:07;;;;;;;8.07;5.70;;;;;;;0.37;100.00;102401.19;4761330;30;20036;-84
2022/01/10 10:09:34;;;;;;;9.50;5.47;;;;;;;0.43;100.00;102409.59;4758895;30;20036;-84
2022/01/10 10:12:02;;;;;;;9.15;5.20;;;;;;;0.40;100.00;102407.13;4775777;30;20028;-84
2022/01/10 10:14:28;;;;;;;8.35;5.10;;;;;;;0.54;100.00;102421.34;4766995;30;20021;-84
2022/01/10 10:16:57;;;;;;;8.32;5.00;;;;;;;0.56;100.00;102416.78;4765053;30;20056;-83
2022/01/10 10:19:28;;;;;;;7.85;5.03;;;;;;;0.63;100.00;102420.75;4748830;30;20080;-82
2022/01/10 10:21:57;;;;;;;8.52;5.03;;;;;;;0.60;100.00;102427.09;4763614;30;20028;-83
2022/01/10 10:24:23;;;;;;;8.80;5.20;;;;;;;0.64;100.00;102428.59;4765627;30;20028;-85
2022/01/10 10:26:50;;;;;;;11.48;5.32;;;;;;;0.65;100.00;102414.41;4762423;30;20185;-83
2022/01/10 10:29:17;;;;;;;7.25;4.30;;;;;;;0.74;100.00;102420.94;4766366;30;20024;-85
2022/01/10 10:31:48;;;;;;;6.28;4.10;;;;;;;0.84;100.00;102424.72;4763885;30;20048;-85
2022/01/10 10:34:21;;;;;;;7.40;4.38;;;;;;;0.74;100.00;102415.66;4768947;30;20038;-85
2022/01/10 10:37:05;;;;;;;10.32;4.75;;;;;;;0.85;100.00;102434.38;4769125;30;20032;-85
2022/01/10 10:39:34;;;;;;;6.43;4.00;;;;;;;0.93;100.00;102441.84;4772985;30;20031;-84
2022/01/10 10:42:04;;;;;;;5.72;3.70;;;;;;;1.00;100.00;102447.63;4773316;30;20050;-84
2022/01/10 10:44:30;;;;;;;6.20;3.30;;;;;;;1.10;100.00;102448.75;4772720;30;20028;-84
2022/01/10 10:46:56;;;;;;;5.03;3.70;;;;;;;1.04;100.00;102442.03;4772654;30;20036;-85
2022/01/10 10:49:30;;;;;;;5.97;3.55;;;;;;;1.14;100.00;102450.25;4771534;30;20024;-85
2022/01/10 10:51:57;;;;;;;5.28;2.92;;;;;;;1.26;100.00;102462.72;4768143;30;20099;-84
2022/01/10 10:54:24;;;;;;;5.38;3.45;;;;;;;1.23;100.00;102457.63;4763902;30;20040;-84
2022/01/10 10:56:49;;;;;;;5.53;3.15;;;;;;;1.34;100.00;102476.34;4746199;30;20110;-83
2022/01/10 10:59:14;;;;;;;4.35;3.25;;;;;;;1.30;100.00;102471.34;4759763;30;20357;-83
2022/01/10 11:01:41;;;;;;;8.18;3.80;;;;;;;1.37;100.00;102480.59;4745880;30;20036;-82
2022/01/10 11:04:11;;;;;;;5.60;3.80;;;;;;;1.39;100.00;102484.00;4734183;30;20128;-85
2022/01/10 11:06:38;;;;;;;5.40;3.95;;;;;;;1.38;100.00;102493.75;4750922;30;20036;-84
2022/01/10 11:09:12;;;;;;;6.55;3.70;;;;;;;1.37;100.00;102497.34;4752336;30;20067;-84
2022/01/10 11:11:39;;;;;;;5.38;3.35;;;;;;;1.34;100.00;102486.09;4770212;30;20015;-84
2022/01/10 11:14:06;;;;;;;7.97;3.95;;;;;;;1.41;100.00;102487.41;4774031;30;20067;-83
2022/01/10 11:16:36;;;;;;;6.40;4.00;;;;;;;1.54;100.00;102498.94;4759658;30;20039;-82
2022/01/10 11:19:02;;;;;;;6.20;3.80;;;;;;;1.60;100.00;102493.25;4760019;30;20047;-83
2022/01/10 11:21:28;;;;;;;6.50;4.00;;;;;;;1.69;100.00;102506.84;4758819;30;20028;-81
2022/01/10 11:23:53;;;;;;;6.78;4.00;;;;;;;1.62;100.00;102511.69;4757863;30;20378;-82
2022/01/10 11:26:19;;;;;;;5.03;3.60;;;;;;;1.77;100.00;102515.19;4752535;30;20036;-82
2022/01/10 11:28:50;;;;;;;5.78;4.05;;;;;;;1.81;100.00;102496.28;4771183;30;20113;-82
2022/01/10 11:31:22;;;;;;;8.80;3.88;;;;;;;1.77;100.00;102502.75;4768490;30;20114;-83
2022/01/10 11:33:48;;;;;;;6.82;3.85;;;;;;;1.69;100.00;102498.88;4766302;30;20082;-83
2022/01/10 11:36:15;;;;;;;6.13;4.13;;;;;;;1.81;100.00;102506.91;4769910;30;20061;-82
2022/01/10 11:38:45;;;;;;;7.35;4.18;;;;;;;1.71;100.00;102505.78;4764183;30;20036;-82
2022/01/10 11:41:21;;;;;;;7.38;4.43;;;;;;;1.80;100.00;102507.88;4764965;30;20043;-83
2022/01/10 11:44:10;;;;;;;8.23;4.10;;;;;;;1.73;100.00;102495.09;4769548;30;20038;-83
2022/01/10 11:46:42;;;;;;;5.55;4.00;;;;;;;1.75;100.00;102490.53;4769789;30;20134;-85
2022/01/10 11:49:13;;;;;;;5.97;4.22;;;;;;;1.77;100.00;102520.47;4764246;30;20042;-84
2022/01/10 11:51:49;;;;;;;6.32;4.10;;;;;;;1.75;100.00;102512.59;4760800;30;20029;-83
2022/01/10 11:54:29;;;;;;;4.68;3.13;;;;;;;1.76;100.00;102522.28;4772394;30;20047;-84
2022/01/10 11:56:57;;;;;;;6.18;3.90;;;;;;;1.86;100.00;102530.50;4754949;30;20036;-84
2022/01/10 11:59:56;;;;;;;6.68;3.67;;;;;;;1.79;100.00;102523.91;4775091;30;20116;-83
2022/01/10 12:02:24;;;;;;;8.70;3.85;;;;;;;1.60;100.00;102519.75;4766765;30;20040;-84
2022/01/10 12:04:57;;;;;;;4.78;3.25;;;;;;;1.61;100.00;102520.63;4743561;30;20032;-84
2022/01/10 12:07:23;;;;;;;7.07;3.55;;;;;;;1.75;100.00;102533.84;4760402;30;20025;-84
2022/01/10 12:09:50;;;;;;;7.15;3.47;;;;;;;1.72;100.00;102538.50;4767693;30;20039;-83
2022/01/10 12:12:18;;;;;;;7.70;3.92;;;;;;;1.68;100.00;102532.53;4766666;30;20035;-85
2022/01/10 12:14:45;;;;;;;6.88;4.03;;;;;;;1.65;100.00;102528.25;4773129;30;20066;-84
2022/01/10 12:17:12;;;;;;;5.28;3.80;;;;;;;1.79;100.00;102542.47;4773230;30;20079;-84
2022/01/10 12:19:39;;;;;;;7.22;4.32;;;;;;;1.77;100.00;102531.94;4756253;30;20071;-83
2022/01/10 12:22:10;;;;;;;8.30;4.13;;;;;;;1.79;100.00;102561.06;4771043;30;20051;-84
2022/01/10 12:24:38;;;;;;;6.65;4.30;;;;;;;1.78;100.00;102557.53;4778340;30;20039;-83
2022/01/10 12:27:05;;;;;;;7.57;4.45;;;;;;;1.78;100.00;102556.69;4764054;30;20040;-84
2022/01/10 12:29:31;;;;;;;6.47;3.50;;;;;;;1.77;100.00;102563.78;4775222;30;20087;-83
2022/01/10 12:31:58;;;;;;;8.23;4.00;;;;;;;1.80;100.00;102562.75;4763165;30;20044;-84
2022/01/10 12:34:24;;;;;;;7.55;3.97;;;;;;;1.96;100.00;102567.94;4769336;30;20035;-84
2022/01/10 12:36:50;;;;;;;7.35;3.83;;;;;;;1.92;100.00;102561.09;4764340;30;20051;-84
2022/01/10 12:39:26;;;;;;;6.80;4.30;;;;;;;1.96;100.00;102570.59;4765855;30;20411;-83
2022/01/10 12:41:56;;;;;;;8.60;4.07;;;;;;;1.87;100.00;102567.56;4772457;30;20036;-83
2022/01/10 12:44:21;;;;;;;8.30;4.25;;;;;;;1.94;100.00;102575.13;4761813;30;20024;-84
2022/01/10 12:46:47;;;;;;;7.13;4.43;;;;;;;1.87;100.00;102577.31;4766883;30;20092;-83
2022/01/10 12:49:16;;;;;;;9.00;4.82;;;;;;;1.86;100.00;102573.81;4764586;30;20040;-84
2022/01/10 12:51:58;;;;;;;9.73;5.68;;;;;;;1.97;100.00;102577.59;4764344;30;20084;-84
2022/01/10 12:54:29;;;;;;;19.38;10.63;;;;;;;1.75;100.00;102571.00;4763996;30;20067;-83
2022/01/10 12:56:56;;;;;;;15.55;8.48;;;;;;;1.82;100.00;102574.97;4764140;30;20097;-83
2022/01/10 12:59:24;;;;;;;18.65;8.68;;;;;;;1.87;100.00;102580.81;4770406;30;20063;-84
2022/01/10 13:01:52;;;;;;;12.52;6.72;;;;;;;1.77;100.00;102578.88;4769140;30;20031;-82
2022/01/10 13:04:27;;;;;;;13.02;6.40;;;;;;;1.85;100.00;102585.41;4761279;30;20070;-84
2022/01/10 13:06:53;;;;;;;9.05;5.40;;;;;;;1.57;100.00;102548.28;4761955;30;20032;-84
2022/01/10 13:09:20;;;;;;;6.70;4.07;;;;;;;1.64;100.00;102574.34;4768504;30;20040;-84
2022/01/10 13:12:00;;;;;;;6.88;4.07;;;;;;;1.78;100.00;102586.72;4772950;30;20028;-83
2022/01/10 13:14:33;;;;;;;8.75;3.90;;;;;;;1.74;100.00;102590.53;4761184;30;20033;-84
2022/01/10 13:17:01;;;;;;;5.93;3.85;;;;;;;1.68;100.00;102579.44;4763819;30;20032;-82
2022/01/10 13:19:29;;;;;;;5.85;3.45;;;;;;;1.72;100.00;102596.88;4763377;30;20096;-83